createdAt,value
2022-11-01T00:00:11.810Z,18.00
2022-11-01T00:02:43.635Z,18.00
2022-11-01T00:05:13.105Z,17.90
2022-11-01T00:07:42.538Z,18.00
2022-11-01T00:10:12.088Z,18.00
2022-11-01T00:12:41.557Z,18.00
2022-11-01T00:15:10.977Z,18.00
2022-11-01T00:17:40.441Z,18.10
2022-11-01T00:20:11.747Z,18.00
2022-11-01T00:22:41.313Z,18.10
2022-11-01T00:25:11.733Z,18.10
2022-11-01T00:27:41.221Z,18.10
2022-11-01T00:30:10.987Z,17.90
2022-11-01T00:32:41.338Z,18.00
2022-11-01T00:35:10.813Z,17.90
2022-11-01T00:37:40.259Z,17.80
2022-11-01T00:40:11.081Z,17.90
2022-11-01T00:42:40.976Z,17.80
2022-11-01T00:45:10.746Z,17.80
2022-11-01T00:47:40.212Z,17.90
2022-11-01T00:50:10.830Z,17.80
2022-11-01T00:52:40.350Z,17.60
2022-11-01T00:55:10.772Z,17.60
2022-11-01T00:57:40.231Z,17.60
2022-11-01T01:00:11.965Z,17.60
2022-11-01T01:02:41.842Z,17.60
2022-11-01T01:05:12.217Z,17.60
2022-11-01T01:07:41.710Z,17.70
2022-11-01T01:10:11.242Z,17.70
2022-11-01T01:12:40.745Z,17.70
2022-11-01T01:15:10.846Z,17.70
2022-11-01T01:17:40.370Z,17.70
2022-11-01T01:20:11.474Z,17.50
2022-11-01T01:22:42.147Z,17.60
2022-11-01T01:25:13.131Z,17.60
2022-11-01T01:27:42.621Z,17.50
2022-11-01T01:30:12.502Z,17.40
2022-11-01T01:32:44.389Z,17.00
2022-11-01T01:35:13.890Z,17.00
2022-11-01T01:37:43.320Z,17.00
2022-11-01T01:40:13.038Z,16.80
2022-11-01T01:42:44.142Z,16.70
2022-11-01T01:45:19.499Z,16.80
2022-11-01T01:47:52.012Z,16.80
2022-11-01T01:50:37.159Z,16.70
2022-11-01T01:53:15.665Z,16.70
2022-11-01T01:55:48.187Z,16.60
2022-11-01T01:58:18.370Z,16.60
2022-11-01T02:00:48.047Z,16.70
2022-11-01T02:03:18.506Z,16.60
2022-11-01T02:05:51.045Z,16.50
2022-11-01T02:08:23.010Z,16.50
2022-11-01T02:10:52.497Z,16.40
2022-11-01T02:13:21.989Z,16.40
2022-11-01T02:16:16.959Z,16.40
2022-11-01T02:18:49.465Z,16.50
2022-11-01T02:21:39.942Z,16.40
2022-11-01T02:24:12.431Z,16.50
2022-11-01T02:27:01.622Z,16.30
2022-11-01T02:29:46.033Z,16.30
2022-11-01T02:32:27.408Z,16.20
2022-11-01T02:35:12.010Z,16.10
2022-11-01T02:37:47.406Z,16.20
2022-11-01T02:40:19.897Z,16.40
2022-11-01T02:42:52.766Z,16.30
2022-11-01T02:45:30.599Z,16.40
2022-11-01T02:48:02.123Z,16.30
2022-11-01T02:50:55.552Z,16.30
2022-11-01T02:53:25.556Z,16.20
2022-11-01T02:55:55.509Z,16.30
2022-11-01T02:58:28.379Z,16.40
2022-11-01T03:00:57.916Z,16.50
2022-11-01T03:03:37.743Z,16.50
2022-11-01T03:06:10.297Z,16.50
2022-11-01T03:08:48.300Z,16.70
2022-11-01T03:11:26.907Z,16.60
2022-11-01T03:14:17.641Z,16.60
2022-11-01T03:16:59.088Z,16.70
2022-11-01T03:19:40.215Z,16.80
2022-11-01T03:22:27.115Z,16.90
2022-11-01T03:25:44.695Z,17.00
2022-11-01T03:28:22.301Z,16.80
2022-11-01T03:31:09.847Z,16.90
2022-11-01T03:33:43.259Z,16.90
2022-11-01T03:36:15.809Z,16.80
2022-11-01T03:38:57.470Z,16.80
2022-11-01T03:41:30.150Z,16.80
2022-11-01T03:44:01.619Z,16.80
2022-11-01T03:46:32.258Z,16.60
2022-11-01T03:49:01.686Z,16.70
2022-11-01T03:51:31.112Z,16.70
2022-11-01T03:54:01.115Z,16.70
2022-11-01T03:56:30.529Z,16.60
2022-11-01T03:58:59.979Z,16.60
2022-11-01T04:01:29.628Z,16.50
2022-11-01T04:04:00.234Z,16.60
2022-11-01T04:06:29.873Z,16.60
2022-11-01T04:08:59.429Z,16.60
2022-11-01T04:11:28.862Z,16.70
2022-11-01T04:14:00.040Z,16.60
2022-11-01T04:16:47.765Z,16.50
2022-11-01T04:19:35.234Z,16.40
2022-11-01T04:22:04.736Z,16.50
2022-11-01T04:24:34.158Z,16.40
2022-11-01T04:27:03.667Z,16.50
2022-11-01T04:29:33.113Z,16.60
2022-11-01T04:32:03.211Z,16.60
2022-11-01T04:34:44.854Z,16.70
2022-11-01T04:37:14.359Z,16.80
2022-11-01T04:39:43.849Z,16.90
2022-11-01T04:42:13.331Z,16.70
2022-11-01T04:44:42.748Z,16.60
2022-11-01T04:47:12.196Z,16.60
2022-11-01T04:49:41.683Z,16.60
2022-11-01T04:52:11.093Z,16.60
2022-11-01T04:54:40.505Z,16.50
2022-11-01T04:57:14.934Z,16.40
2022-11-01T04:59:44.350Z,16.50
2022-11-01T05:02:13.848Z,16.50
2022-11-01T05:04:43.385Z,16.60
2022-11-01T05:07:14.171Z,16.50
2022-11-01T05:09:44.694Z,16.50
2022-11-01T05:12:14.122Z,16.50
2022-11-01T05:14:43.582Z,16.40
2022-11-01T05:17:13.055Z,16.50
2022-11-01T05:19:42.540Z,16.60
2022-11-01T05:22:12.065Z,16.40
2022-11-01T05:27:12.117Z,16.30
2022-11-01T05:29:41.671Z,16.40
2022-11-01T05:32:11.134Z,16.50
2022-11-01T05:34:40.569Z,16.40
2022-11-01T05:37:10.862Z,16.30
2022-11-01T05:39:40.362Z,16.50
2022-11-01T05:42:09.843Z,16.40
2022-11-01T05:44:39.392Z,16.50
2022-11-01T05:47:10.337Z,16.60
2022-11-01T05:49:39.893Z,16.50
2022-11-01T05:52:09.317Z,16.60
2022-11-01T05:54:38.815Z,16.60
2022-11-01T05:57:08.313Z,16.60
2022-11-01T05:59:37.755Z,16.60
2022-11-01T06:02:07.235Z,16.50
2022-11-01T06:04:36.779Z,16.50
2022-11-01T06:07:06.273Z,16.60
2022-11-01T06:09:36.421Z,16.70
2022-11-01T06:12:06.390Z,16.70
2022-11-01T06:14:35.828Z,16.60
2022-11-01T06:17:05.292Z,16.50
2022-11-01T06:19:34.798Z,16.50
2022-11-01T06:22:04.229Z,16.50
2022-11-01T06:24:34.599Z,16.40
2022-11-01T06:27:06.309Z,16.40
2022-11-01T06:29:35.208Z,16.50
2022-11-01T06:32:06.869Z,16.40
2022-11-01T06:34:39.577Z,16.30
2022-11-01T06:37:07.508Z,16.30
2022-11-01T06:39:36.963Z,16.30
2022-11-01T06:42:06.637Z,16.30
2022-11-01T06:44:36.071Z,16.40
2022-11-01T06:47:05.590Z,16.40
2022-11-01T06:49:35.023Z,16.40
2022-11-01T06:52:05.294Z,16.30
2022-11-01T06:54:34.088Z,16.40
2022-11-01T06:57:02.604Z,16.30
2022-11-01T06:59:31.284Z,16.40
2022-11-01T07:01:59.899Z,16.40
2022-11-01T07:04:30.278Z,16.50
2022-11-01T07:06:59.563Z,16.50
2022-11-01T07:09:28.166Z,16.60
2022-11-01T07:11:56.740Z,16.60
2022-11-01T07:14:25.325Z,16.60
2022-11-01T07:16:53.904Z,16.50
2022-11-01T07:19:24.105Z,16.60
2022-11-01T07:21:52.750Z,16.50
2022-11-01T07:24:21.379Z,16.60
2022-11-01T07:26:49.952Z,16.50
2022-11-01T07:29:20.182Z,16.40
2022-11-01T07:31:48.751Z,16.60
2022-11-01T07:34:17.323Z,16.60
2022-11-01T07:36:47.066Z,16.70
2022-11-01T07:39:15.793Z,16.60
2022-11-01T07:41:44.409Z,16.80
2022-11-01T07:44:13.034Z,16.50
2022-11-01T07:46:41.609Z,16.60
2022-11-01T07:49:10.178Z,16.60
2022-11-01T07:51:38.900Z,16.90
2022-11-01T07:54:08.496Z,17.50
2022-11-01T07:56:37.061Z,17.80
2022-11-01T07:59:05.749Z,18.50
2022-11-01T08:01:35.337Z,18.80
2022-11-01T08:04:04.009Z,18.50
2022-11-01T08:06:34.950Z,18.50
2022-11-01T08:09:05.283Z,18.90
2022-11-01T08:11:36.224Z,18.90
2022-11-01T08:14:12.122Z,18.90
2022-11-01T08:16:41.027Z,19.40
2022-11-01T08:19:11.123Z,19.40
2022-11-01T08:21:39.740Z,19.80
2022-11-01T08:24:08.422Z,20.60
2022-11-01T08:26:36.982Z,21.00
2022-11-01T08:29:05.599Z,21.40
2022-11-01T08:31:34.175Z,21.50
2022-11-01T08:34:02.893Z,21.80
2022-11-01T08:36:31.501Z,22.70
2022-11-01T08:39:01.038Z,23.00
2022-11-01T08:41:29.689Z,21.50
2022-11-01T08:43:59.283Z,20.00
2022-11-01T08:46:27.847Z,21.60
2022-11-01T08:48:58.040Z,22.30
2022-11-01T08:51:28.120Z,22.80
2022-11-01T08:53:57.895Z,23.60
2022-11-01T08:56:28.610Z,24.00
2022-11-01T08:58:58.756Z,23.30
2022-11-01T09:01:27.667Z,23.70
2022-11-01T09:03:59.130Z,23.20
2022-11-01T09:06:33.707Z,23.80
2022-11-01T09:09:01.013Z,24.50
2022-11-01T09:11:31.050Z,23.80
2022-11-01T09:14:01.320Z,23.50
2022-11-01T09:16:30.029Z,23.40
2022-11-01T09:19:00.244Z,25.00
2022-11-01T09:21:31.804Z,24.60
2022-11-01T09:24:00.330Z,23.70
2022-11-01T09:26:29.158Z,24.20
2022-11-01T09:28:59.293Z,24.80
2022-11-01T09:31:29.546Z,24.70
2022-11-01T09:34:01.782Z,24.90
2022-11-01T09:36:31.697Z,24.40
2022-11-01T09:39:00.443Z,21.80
2022-11-01T09:41:36.600Z,20.10
2022-11-01T09:44:07.381Z,20.00
2022-11-01T09:46:37.546Z,21.20
2022-11-01T09:49:07.477Z,22.10
2022-11-01T09:51:37.420Z,21.80
2022-11-01T09:54:07.697Z,21.70
2022-11-01T09:56:37.809Z,21.20
2022-11-01T09:59:07.913Z,22.60
2022-11-01T10:01:55.760Z,23.20
2022-11-01T10:04:29.058Z,21.90
2022-11-01T10:07:13.726Z,21.50
2022-11-01T10:09:49.678Z,20.90
2022-11-01T10:12:19.845Z,20.10
2022-11-01T10:14:49.940Z,20.70
2022-11-01T10:17:20.087Z,21.30
2022-11-01T10:19:50.919Z,20.80
2022-11-01T10:22:21.375Z,19.90
2022-11-01T10:24:51.475Z,20.60
2022-11-01T10:27:33.078Z,20.40
2022-11-01T10:30:07.941Z,20.70
2022-11-01T10:32:54.832Z,20.80
2022-11-01T10:35:25.748Z,21.10
2022-11-01T10:38:11.406Z,20.80
2022-11-01T10:40:30.362Z,20.30
2022-11-01T10:42:59.795Z,20.40
2022-11-01T10:45:28.479Z,20.20
2022-11-01T10:48:00.293Z,19.70
2022-11-01T10:50:30.490Z,19.80
2022-11-01T10:53:04.432Z,19.40
2022-11-01T10:55:37.377Z,19.70
2022-11-01T10:58:07.473Z,19.30
2022-11-01T11:00:38.367Z,19.40
2022-11-01T11:03:14.502Z,19.60
2022-11-01T11:05:44.178Z,19.60
2022-11-01T11:08:17.445Z,19.80
2022-11-01T11:10:46.173Z,19.70
2022-11-01T11:15:13.881Z,19.90
2022-11-01T11:17:46.271Z,19.80
2022-11-01T11:20:18.793Z,19.90
2022-11-01T11:22:48.358Z,19.60
2022-11-01T11:25:21.528Z,19.80
2022-11-01T11:27:53.988Z,19.60
2022-11-01T11:30:35.175Z,19.50
2022-11-01T11:33:05.921Z,20.00
2022-11-01T11:35:37.350Z,20.60
2022-11-01T11:38:08.459Z,20.40
2022-11-01T11:40:43.996Z,20.30
2022-11-01T11:43:33.681Z,21.20
2022-11-01T11:46:08.996Z,21.70
2022-11-01T11:48:48.069Z,20.40
2022-11-01T11:51:17.673Z,20.70
2022-11-01T11:53:47.849Z,20.60
2022-11-01T11:56:20.344Z,21.20
2022-11-01T11:58:53.340Z,21.00
2022-11-01T12:01:27.582Z,20.80
2022-11-01T12:04:02.741Z,20.60
2022-11-01T12:06:35.267Z,21.40
2022-11-01T12:09:04.960Z,22.50
2022-11-01T12:11:47.739Z,22.50
2022-11-01T12:14:26.281Z,21.50
2022-11-01T12:16:55.963Z,20.80
2022-11-01T12:19:28.763Z,20.70
2022-11-01T12:22:01.295Z,20.60
2022-11-01T12:24:45.566Z,20.40
2022-11-01T12:27:18.219Z,19.90
2022-11-01T12:29:56.307Z,19.90
2022-11-01T12:32:28.942Z,20.30
2022-11-01T12:35:01.445Z,20.40
2022-11-01T12:37:36.683Z,20.30
2022-11-01T12:40:12.155Z,19.80
2022-11-01T12:42:55.348Z,19.90
2022-11-01T12:45:52.019Z,19.90
2022-11-01T12:48:39.058Z,20.10
2022-11-01T12:51:14.565Z,20.50
2022-11-01T12:54:00.483Z,20.20
2022-11-01T12:56:30.112Z,20.10
2022-11-01T12:58:59.636Z,20.50
2022-11-01T13:01:38.097Z,20.60
2022-11-01T13:04:31.748Z,20.80
2022-11-01T13:07:15.597Z,20.70
2022-11-01T13:10:07.475Z,20.20
2022-11-01T13:12:56.337Z,20.50
2022-11-01T13:15:37.491Z,20.50
2022-11-01T13:18:13.946Z,20.70
2022-11-01T13:20:52.345Z,21.10
2022-11-01T13:23:27.610Z,20.70
2022-11-01T13:26:00.118Z,20.60
2022-11-01T13:28:50.029Z,19.80
2022-11-01T13:31:51.294Z,20.10
2022-11-01T13:34:51.286Z,20.00
2022-11-01T13:37:38.881Z,19.60
2022-11-01T13:40:20.375Z,19.90
2022-11-01T13:43:05.297Z,20.20
2022-11-01T13:46:11.484Z,20.20
2022-11-01T13:48:47.122Z,19.90
2022-11-01T13:51:35.936Z,20.20
2022-11-01T13:54:23.462Z,20.20
2022-11-01T13:57:15.303Z,20.20
2022-11-01T13:59:56.504Z,20.30
2022-11-01T14:02:30.807Z,20.40
2022-11-01T14:05:11.515Z,20.50
2022-11-01T14:07:51.841Z,20.20
2022-11-01T14:10:30.961Z,20.50
2022-11-01T14:13:12.302Z,20.50
2022-11-01T14:16:00.034Z,20.60
2022-11-01T14:18:30.959Z,20.20
2022-11-01T14:21:03.464Z,20.00
2022-11-01T14:23:36.044Z,20.20
2022-11-01T14:26:24.863Z,20.40
2022-11-01T14:28:58.311Z,20.20
2022-11-01T14:31:31.979Z,20.20
2022-11-01T14:34:10.624Z,20.20
2022-11-01T14:36:43.257Z,20.20
2022-11-01T14:39:24.531Z,20.20
2022-11-01T14:41:56.701Z,20.00
2022-11-01T14:44:30.310Z,19.90
2022-11-01T14:47:02.893Z,19.90
2022-11-01T14:49:46.335Z,19.90
2022-11-01T14:52:18.853Z,20.10
2022-11-01T14:55:04.924Z,20.00
2022-11-01T14:57:36.990Z,20.10
2022-11-01T15:00:30.503Z,20.10
2022-11-01T15:03:03.068Z,20.30
2022-11-01T15:05:32.511Z,20.30
2022-11-01T15:08:02.348Z,19.90
2022-11-01T15:10:35.864Z,20.00
2022-11-01T15:13:06.834Z,20.20
2022-11-01T15:15:38.499Z,20.20
2022-11-01T15:18:17.194Z,20.30
2022-11-01T15:20:50.890Z,20.40
2022-11-01T15:23:23.396Z,20.50
2022-11-01T15:25:55.942Z,20.40
2022-11-01T15:28:29.400Z,20.30
2022-11-01T15:31:01.966Z,20.10
2022-11-01T15:33:33.436Z,20.00
2022-11-01T15:36:08.831Z,19.80
2022-11-01T15:38:50.220Z,19.90
2022-11-01T15:41:22.502Z,19.90
2022-11-01T15:43:54.540Z,19.80
2022-11-01T15:46:27.083Z,20.00
2022-11-01T15:48:59.576Z,19.90
2022-11-01T15:51:32.175Z,20.00
2022-11-01T15:54:04.674Z,20.00
2022-11-01T15:56:38.837Z,20.10
2022-11-01T15:59:12.708Z,20.20
2022-11-01T16:01:42.453Z,20.20
2022-11-01T16:04:15.955Z,20.10
2022-11-01T16:06:48.493Z,19.80
2022-11-01T16:09:45.474Z,19.80
2022-11-01T16:12:23.815Z,19.90
2022-11-01T16:14:56.718Z,19.80
2022-11-01T16:17:39.979Z,19.80
2022-11-01T16:20:30.842Z,19.70
2022-11-01T16:23:09.367Z,19.70
2022-11-01T16:25:40.551Z,19.80
2022-11-01T16:28:16.463Z,19.70
2022-11-01T16:30:55.519Z,19.70
2022-11-01T16:33:28.112Z,19.60
2022-11-01T16:36:00.470Z,19.60
2022-11-01T16:38:39.059Z,19.60
2022-11-01T16:41:17.574Z,19.60
2022-11-01T16:43:49.749Z,19.50
2022-11-01T16:46:22.110Z,19.40
2022-11-01T16:48:58.382Z,19.40
2022-11-01T16:51:30.586Z,19.40
2022-11-01T16:54:01.546Z,19.30
2022-11-01T16:56:36.986Z,19.20
2022-11-01T16:59:11.349Z,19.20
2022-11-01T17:01:41.000Z,19.20
2022-11-01T17:04:13.533Z,19.10
2022-11-01T17:06:42.979Z,19.10
2022-11-01T17:09:15.576Z,19.00
2022-11-01T17:11:51.075Z,18.90
2022-11-01T17:14:19.565Z,18.90
2022-11-01T17:16:52.415Z,18.90
2022-11-01T17:19:27.895Z,18.80
2022-11-01T17:22:00.450Z,18.70
2022-11-01T17:24:33.574Z,18.80
2022-11-01T17:27:06.002Z,18.70
2022-11-01T17:29:35.489Z,18.60
2022-11-01T17:32:07.152Z,18.60
2022-11-01T17:34:38.219Z,18.50
2022-11-01T17:37:07.827Z,18.50
2022-11-01T17:39:38.863Z,18.50
2022-11-01T17:42:09.818Z,18.40
2022-11-01T17:44:39.252Z,18.40
2022-11-01T17:47:12.563Z,18.30
2022-11-01T17:49:42.064Z,18.30
2022-11-01T17:52:11.569Z,18.30
2022-11-01T17:54:42.100Z,18.20
2022-11-01T17:57:13.208Z,18.20
2022-11-01T17:59:42.643Z,18.10
2022-11-01T18:02:12.317Z,18.10
2022-11-01T18:04:42.654Z,18.10
2022-11-01T18:07:13.635Z,18.10
2022-11-01T18:09:43.127Z,18.10
2022-11-01T18:12:24.344Z,18.00
2022-11-01T18:15:11.940Z,17.90
2022-11-01T18:17:54.218Z,17.90
2022-11-01T18:20:29.537Z,17.90
2022-11-01T18:23:13.548Z,17.90
2022-11-01T18:25:46.049Z,17.80
2022-11-01T18:28:18.726Z,17.90
2022-11-01T18:30:59.657Z,17.80
2022-11-01T18:33:35.114Z,17.80
2022-11-01T18:36:07.610Z,17.80
2022-11-01T18:38:45.926Z,17.70
2022-11-01T18:41:18.640Z,17.80
2022-11-01T18:43:49.642Z,17.80
2022-11-01T18:46:27.079Z,17.80
2022-11-01T18:49:02.199Z,17.80
2022-11-01T18:51:34.421Z,17.70
2022-11-01T18:54:13.552Z,17.70
2022-11-01T18:56:46.255Z,17.80
2022-11-01T18:59:24.914Z,17.70
2022-11-01T19:02:02.837Z,17.70
2022-11-01T19:04:36.485Z,17.60
2022-11-01T19:07:19.051Z,17.50
2022-11-01T19:09:54.460Z,17.10
2022-11-01T19:12:28.611Z,17.10
2022-11-01T19:15:01.138Z,17.10
2022-11-01T19:17:35.107Z,17.20
2022-11-01T19:20:28.474Z,17.10
2022-11-01T19:23:00.484Z,17.00
2022-11-01T19:25:33.284Z,17.00
2022-11-01T19:28:06.280Z,16.70
2022-11-01T19:30:36.057Z,16.20
2022-11-01T19:33:17.365Z,16.10
2022-11-01T19:35:48.157Z,16.00
2022-11-01T19:38:17.745Z,16.30
2022-11-01T19:40:53.041Z,16.60
2022-11-01T19:43:25.546Z,16.70
2022-11-01T19:45:59.629Z,16.50
2022-11-01T19:48:30.982Z,16.30
2022-11-01T19:51:01.426Z,16.30
2022-11-01T19:53:36.587Z,16.30
2022-11-01T19:56:08.478Z,16.40
2022-11-01T19:58:42.173Z,16.70
2022-11-01T20:01:29.888Z,16.70
2022-11-01T20:04:27.838Z,16.40
2022-11-01T20:07:03.735Z,16.50
2022-11-01T20:09:36.372Z,16.80
2022-11-01T20:12:06.747Z,16.90
2022-11-01T20:14:36.923Z,16.80
2022-11-01T20:17:07.137Z,16.90
2022-11-01T20:19:36.805Z,16.80
2022-11-01T20:22:07.125Z,16.90
2022-11-01T20:24:36.562Z,16.80
2022-11-01T20:27:06.002Z,16.40
2022-11-01T20:29:35.431Z,16.00
2022-11-01T20:32:05.885Z,15.80
2022-11-01T20:34:35.384Z,15.90
2022-11-01T20:39:37.283Z,16.40
2022-11-01T20:42:08.423Z,16.40
2022-11-01T20:44:38.083Z,16.50
2022-11-01T20:47:07.516Z,16.60
2022-11-01T20:49:37.085Z,16.50
2022-11-01T20:52:34.048Z,16.50
2022-11-01T20:54:37.977Z,16.50
2022-11-01T20:57:09.766Z,16.40
2022-11-01T20:59:38.656Z,16.50
2022-11-01T21:02:13.816Z,16.50
2022-11-01T21:04:43.316Z,16.50
2022-11-01T21:07:14.771Z,16.60
2022-11-01T21:09:46.641Z,16.60
2022-11-01T21:12:47.930Z,16.40
2022-11-01T21:15:26.017Z,16.60
2022-11-01T21:18:13.998Z,16.70
2022-11-01T21:20:49.339Z,16.50
2022-11-01T21:23:35.166Z,16.60
2022-11-01T21:26:19.194Z,16.70
2022-11-01T21:28:54.614Z,16.70
2022-11-01T21:31:32.661Z,16.70
2022-11-01T21:34:04.896Z,16.70
2022-11-01T21:36:36.438Z,16.70
2022-11-01T21:39:25.817Z,16.70
2022-11-01T21:42:04.241Z,16.70
2022-11-01T21:44:42.564Z,16.70
2022-11-01T21:47:17.589Z,16.70
2022-11-01T21:49:47.242Z,16.70
2022-11-01T21:52:19.116Z,16.70
2022-11-01T21:54:50.013Z,16.60
2022-11-01T21:57:19.496Z,16.60
2022-11-01T21:59:48.944Z,16.60
2022-11-01T22:02:18.606Z,16.60
2022-11-01T22:04:48.878Z,16.50
2022-11-01T22:07:18.306Z,16.60
2022-11-01T22:09:47.806Z,16.40
2022-11-01T22:12:17.225Z,16.50
2022-11-01T22:14:46.667Z,16.60
2022-11-01T22:17:16.191Z,16.60
2022-11-01T22:19:46.475Z,16.60
2022-11-01T22:22:15.939Z,16.60
2022-11-01T22:24:45.442Z,16.60
2022-11-01T22:27:15.751Z,16.60
2022-11-01T22:29:45.250Z,16.60
2022-11-01T22:32:14.700Z,16.60
2022-11-01T22:34:46.581Z,16.60
2022-11-01T22:37:16.977Z,16.60
2022-11-01T22:39:52.056Z,16.60
2022-11-01T22:42:19.054Z,16.60
2022-11-01T22:44:51.678Z,16.60
2022-11-01T22:47:24.177Z,16.60
2022-11-01T22:49:56.595Z,16.60
2022-11-01T22:52:32.394Z,16.60
2022-11-01T22:55:13.202Z,16.60
2022-11-01T22:58:00.773Z,16.40
2022-11-01T23:00:41.767Z,16.30
2022-11-01T23:03:28.893Z,15.90
2022-11-01T23:06:05.152Z,15.70
2022-11-01T23:08:36.571Z,15.70
2022-11-01T23:11:06.228Z,16.00
2022-11-01T23:13:58.041Z,15.90
2022-11-01T23:16:33.433Z,16.20
2022-11-01T23:19:05.700Z,16.30
2022-11-01T23:21:35.338Z,16.40
2022-11-01T23:24:04.923Z,16.30
2022-11-01T23:26:34.545Z,16.40
2022-11-01T23:29:04.218Z,16.40
2022-11-01T23:31:33.658Z,16.50
2022-11-01T23:34:03.358Z,16.40
2022-11-01T23:36:35.925Z,16.20
2022-11-01T23:39:09.683Z,16.10
2022-11-01T23:41:42.461Z,16.30
2022-11-01T23:44:27.285Z,16.20
2022-11-01T23:47:27.183Z,16.30
2022-11-01T23:50:02.707Z,16.20
2022-11-01T23:52:38.022Z,16.30
2022-11-01T23:55:30.247Z,16.20
2022-11-01T23:58:05.543Z,16.20
